sensor_id;sensor_type;location;lat;lon;timestamp;temperature;humidity
9215;DHT22;4642;51.364;6.788;2022-12-29T00:01:47;10.30;99.90
9215;DHT22;4642;51.364;6.788;2022-12-29T00:04:14;10.10;99.90
9215;DHT22;4642;51.364;6.788;2022-12-29T00:06:41;10.10;99.90
9215;DHT22;4642;51.364;6.788;2022-12-29T00:09:07;10.10;99.90
9215;DHT22;4642;51.364;6.788;2022-12-29T00:11:33;10.10;99.90
9215;DHT22;4642;51.364;6.788;2022-12-29T00:13:59;10.10;99.90
9215;DHT22;4642;51.364;6.788;2022-12-29T00:16:44;10.10;99.90
9215;DHT22;4642;51.364;6.788;2022-12-29T00:19:11;10.10;99.90
9215;DHT22;4642;51.364;6.788;2022-12-29T00:21:58;10.10;99.90
9215;DHT22;4642;51.364;6.788;2022-12-29T00:24:43;10.10;99.90
9215;DHT22;4642;51.364;6.788;2022-12-29T00:27:29;10.10;99.90
9215;DHT22;4642;51.364;6.788;2022-12-29T00:30:17;10.20;99.90
9215;DHT22;4642;51.364;6.788;2022-12-29T00:33:11;10.20;99.90
9215;DHT22;4642;51.364;6.788;2022-12-29T00:36:06;10.20;99.90
9215;DHT22;4642;51.364;6.788;2022-12-29T00:38:37;10.30;99.90
9215;DHT22;4642;51.364;6.788;2022-12-29T00:41:22;10.30;99.90
9215;DHT22;4642;51.364;6.788;2022-12-29T00:44:07;10.30;99.90
9215;DHT22;4642;51.364;6.788;2022-12-29T00:46:40;10.40;99.90
9215;DHT22;4642;51.364;6.788;2022-12-29T00:49:08;10.40;99.90
9215;DHT22;4642;51.364;6.788;2022-12-29T00:51:53;10.40;99.90
9215;DHT22;4642;51.364;6.788;2022-12-29T00:54:19;10.40;99.90
9215;DHT22;4642;51.364;6.788;2022-12-29T00:56:49;10.40;99.90
9215;DHT22;4642;51.364;6.788;2022-12-29T00:59:15;10.40;99.90
9215;DHT22;4642;51.364;6.788;2022-12-29T01:01:40;10.30;99.90
9215;DHT22;4642;51.364;6.788;2022-12-29T01:04:07;10.30;99.90
9215;DHT22;4642;51.364;6.788;2022-12-29T01:06:33;10.40;99.90
9215;DHT22;4642;51.364;6.788;2022-12-29T01:09:00;10.40;99.90
9215;DHT22;4642;51.364;6.788;2022-12-29T01:11:44;10.40;99.90
9215;DHT22;4642;51.364;6.788;2022-12-29T01:14:10;10.50;99.90
9215;DHT22;4642;51.364;6.788;2022-12-29T01:16:35;10.50;99.90
9215;DHT22;4642;51.364;6.788;2022-12-29T01:19:02;10.60;99.90
9215;DHT22;4642;51.364;6.788;2022-12-29T01:21:28;10.70;99.90
9215;DHT22;4642;51.364;6.788;2022-12-29T01:23:54;10.70;99.90
9215;DHT22;4642;51.364;6.788;2022-12-29T01:26:19;10.80;99.90
9215;DHT22;4642;51.364;6.788;2022-12-29T01:28:45;10.80;99.90
9215;DHT22;4642;51.364;6.788;2022-12-29T01:31:13;10.80;99.90
9215;DHT22;4642;51.364;6.788;2022-12-29T01:33:39;10.90;99.90
9215;DHT22;4642;51.364;6.788;2022-12-29T01:36:07;11.00;99.90
9215;DHT22;4642;51.364;6.788;2022-12-29T01:38:34;11.10;99.90
9215;DHT22;4642;51.364;6.788;2022-12-29T01:41:00;11.00;99.90
9215;DHT22;4642;51.364;6.788;2022-12-29T01:44:02;11.20;99.90
9215;DHT22;4642;51.364;6.788;2022-12-29T01:46:38;11.10;99.90
9215;DHT22;4642;51.364;6.788;2022-12-29T01:51:47;11.30;99.90
9215;DHT22;4642;51.364;6.788;2022-12-29T01:54:23;11.10;99.90
9215;DHT22;4642;51.364;6.788;2022-12-29T01:56:51;11.10;99.90
9215;DHT22;4642;51.364;6.788;2022-12-29T01:59:20;11.10;99.90
9215;DHT22;4642;51.364;6.788;2022-12-29T02:01:47;11.30;99.90
9215;DHT22;4642;51.364;6.788;2022-12-29T02:04:14;11.20;99.90
9215;DHT22;4642;51.364;6.788;2022-12-29T02:07:00;11.20;99.90
9215;DHT22;4642;51.364;6.788;2022-12-29T02:09:26;11.20;99.90
9215;DHT22;4642;51.364;6.788;2022-12-29T02:11:52;11.20;99.90
9215;DHT22;4642;51.364;6.788;2022-12-29T02:14:18;11.20;99.90
9215;DHT22;4642;51.364;6.788;2022-12-29T02:19:53;11.20;99.90
9215;DHT22;4642;51.364;6.788;2022-12-29T02:27:52;11.30;99.90
9215;DHT22;4642;51.364;6.788;2022-12-29T02:33:33;11.20;99.90
9215;DHT22;4642;51.364;6.788;2022-12-29T02:36:54;11.20;99.90
9215;DHT22;4642;51.364;6.788;2022-12-29T02:40:05;11.20;99.90
9215;DHT22;4642;51.364;6.788;2022-12-29T02:42:44;11.10;99.90
9215;DHT22;4642;51.364;6.788;2022-12-29T02:47:48;11.10;99.90
9215;DHT22;4642;51.364;6.788;2022-12-29T02:50:25;11.10;99.90
9215;DHT22;4642;51.364;6.788;2022-12-29T02:55:22;11.10;99.90
9215;DHT22;4642;51.364;6.788;2022-12-29T02:57:47;11.10;99.90
9215;DHT22;4642;51.364;6.788;2022-12-29T03:00:17;11.20;99.90
9215;DHT22;4642;51.364;6.788;2022-12-29T03:03:23;11.20;99.90
9215;DHT22;4642;51.364;6.788;2022-12-29T03:06:21;11.30;99.90
9215;DHT22;4642;51.364;6.788;2022-12-29T03:11:38;11.30;99.90
9215;DHT22;4642;51.364;6.788;2022-12-29T03:14:29;11.30;99.90
9215;DHT22;4642;51.364;6.788;2022-12-29T03:17:46;11.30;99.90
9215;DHT22;4642;51.364;6.788;2022-12-29T03:20:18;11.30;99.90
9215;DHT22;4642;51.364;6.788;2022-12-29T03:22:47;11.40;99.90
9215;DHT22;4642;51.364;6.788;2022-12-29T03:25:24;11.40;99.90
9215;DHT22;4642;51.364;6.788;2022-12-29T03:28:01;11.40;99.90
9215;DHT22;4642;51.364;6.788;2022-12-29T03:30:29;11.30;99.90
9215;DHT22;4642;51.364;6.788;2022-12-29T03:32:59;11.40;99.90
9215;DHT22;4642;51.364;6.788;2022-12-29T03:35:30;11.40;99.90
9215;DHT22;4642;51.364;6.788;2022-12-29T03:40:56;11.40;99.90
9215;DHT22;4642;51.364;6.788;2022-12-29T03:43:23;11.30;99.90
9215;DHT22;4642;51.364;6.788;2022-12-29T03:45:49;11.30;99.90
9215;DHT22;4642;51.364;6.788;2022-12-29T03:48:15;11.30;99.90
9215;DHT22;4642;51.364;6.788;2022-12-29T03:50:41;11.30;99.90
9215;DHT22;4642;51.364;6.788;2022-12-29T03:53:06;11.30;99.90
9215;DHT22;4642;51.364;6.788;2022-12-29T03:55:32;11.30;99.90
9215;DHT22;4642;51.364;6.788;2022-12-29T03:57:57;11.30;99.90
9215;DHT22;4642;51.364;6.788;2022-12-29T04:00:23;11.30;99.90
9215;DHT22;4642;51.364;6.788;2022-12-29T04:02:49;11.30;99.90
9215;DHT22;4642;51.364;6.788;2022-12-29T04:05:14;11.30;99.90
9215;DHT22;4642;51.364;6.788;2022-12-29T04:07:39;11.20;99.90
9215;DHT22;4642;51.364;6.788;2022-12-29T04:10:05;11.40;99.90
9215;DHT22;4642;51.364;6.788;2022-12-29T04:12:31;11.40;99.90
9215;DHT22;4642;51.364;6.788;2022-12-29T04:14:56;11.40;99.90
9215;DHT22;4642;51.364;6.788;2022-12-29T04:17:22;11.40;99.90
9215;DHT22;4642;51.364;6.788;2022-12-29T04:19:48;11.40;99.90
9215;DHT22;4642;51.364;6.788;2022-12-29T04:22:13;11.40;99.90
9215;DHT22;4642;51.364;6.788;2022-12-29T04:24:39;11.40;99.90
9215;DHT22;4642;51.364;6.788;2022-12-29T04:27:05;11.40;99.90
9215;DHT22;4642;51.364;6.788;2022-12-29T04:29:30;11.50;99.90
9215;DHT22;4642;51.364;6.788;2022-12-29T04:31:56;11.70;99.90
9215;DHT22;4642;51.364;6.788;2022-12-29T04:34:21;11.60;99.90
9215;DHT22;4642;51.364;6.788;2022-12-29T04:36:47;11.60;99.90
9215;DHT22;4642;51.364;6.788;2022-12-29T04:39:12;11.60;99.90
9215;DHT22;4642;51.364;6.788;2022-12-29T04:41:38;11.80;99.90
9215;DHT22;4642;51.364;6.788;2022-12-29T04:44:03;11.70;99.90
9215;DHT22;4642;51.364;6.788;2022-12-29T04:46:29;11.70;99.90
9215;DHT22;4642;51.364;6.788;2022-12-29T04:48:55;11.70;99.90
9215;DHT22;4642;51.364;6.788;2022-12-29T04:51:20;11.80;99.90
9215;DHT22;4642;51.364;6.788;2022-12-29T04:53:46;11.80;99.90
9215;DHT22;4642;51.364;6.788;2022-12-29T04:56:11;11.80;99.90
9215;DHT22;4642;51.364;6.788;2022-12-29T04:58:37;11.80;99.90
9215;DHT22;4642;51.364;6.788;2022-12-29T05:01:03;11.80;99.90
9215;DHT22;4642;51.364;6.788;2022-12-29T05:03:28;11.80;99.90
9215;DHT22;4642;51.364;6.788;2022-12-29T05:05:55;11.80;99.90
9215;DHT22;4642;51.364;6.788;2022-12-29T05:08:21;11.90;99.90
9215;DHT22;4642;51.364;6.788;2022-12-29T05:10:46;11.90;99.90
9215;DHT22;4642;51.364;6.788;2022-12-29T05:13:12;11.80;99.90
9215;DHT22;4642;51.364;6.788;2022-12-29T05:15:37;11.90;99.90
9215;DHT22;4642;51.364;6.788;2022-12-29T05:18:03;11.80;99.90
9215;DHT22;4642;51.364;6.788;2022-12-29T05:20:29;11.80;99.90
9215;DHT22;4642;51.364;6.788;2022-12-29T05:22:54;11.80;99.90
9215;DHT22;4642;51.364;6.788;2022-12-29T05:25:20;11.80;99.90
9215;DHT22;4642;51.364;6.788;2022-12-29T05:27:45;11.90;99.90
9215;DHT22;4642;51.364;6.788;2022-12-29T05:30:11;12.20;99.90
9215;DHT22;4642;51.364;6.788;2022-12-29T05:32:37;12.20;99.90
9215;DHT22;4642;51.364;6.788;2022-12-29T05:35:02;12.10;99.90
9215;DHT22;4642;51.364;6.788;2022-12-29T05:37:28;12.00;99.90
9215;DHT22;4642;51.364;6.788;2022-12-29T05:39:54;11.90;99.90
9215;DHT22;4642;51.364;6.788;2022-12-29T05:42:19;11.80;99.90
9215;DHT22;4642;51.364;6.788;2022-12-29T05:44:45;11.70;99.90
9215;DHT22;4642;51.364;6.788;2022-12-29T05:47:10;11.60;99.90
9215;DHT22;4642;51.364;6.788;2022-12-29T05:49:36;11.60;99.90
9215;DHT22;4642;51.364;6.788;2022-12-29T05:52:01;11.40;99.90
9215;DHT22;4642;51.364;6.788;2022-12-29T05:54:27;11.30;99.90
9215;DHT22;4642;51.364;6.788;2022-12-29T05:56:52;11.20;99.90
9215;DHT22;4642;51.364;6.788;2022-12-29T05:59:18;11.20;99.90
9215;DHT22;4642;51.364;6.788;2022-12-29T06:01:43;11.20;99.90
9215;DHT22;4642;51.364;6.788;2022-12-29T06:04:09;11.10;99.90
9215;DHT22;4642;51.364;6.788;2022-12-29T06:06:34;11.10;99.90
9215;DHT22;4642;51.364;6.788;2022-12-29T06:09:00;11.10;99.90
9215;DHT22;4642;51.364;6.788;2022-12-29T06:11:26;11.10;99.90
9215;DHT22;4642;51.364;6.788;2022-12-29T06:13:51;11.20;99.90
9215;DHT22;4642;51.364;6.788;2022-12-29T06:16:17;11.10;99.90
9215;DHT22;4642;51.364;6.788;2022-12-29T06:18:42;11.00;99.90
9215;DHT22;4642;51.364;6.788;2022-12-29T06:21:08;11.10;99.90
9215;DHT22;4642;51.364;6.788;2022-12-29T06:23:33;11.10;99.90
9215;DHT22;4642;51.364;6.788;2022-12-29T06:25:59;11.20;99.90
9215;DHT22;4642;51.364;6.788;2022-12-29T06:28:24;11.40;99.90
9215;DHT22;4642;51.364;6.788;2022-12-29T06:30:50;11.20;99.90
9215;DHT22;4642;51.364;6.788;2022-12-29T06:33:16;11.30;99.90
9215;DHT22;4642;51.364;6.788;2022-12-29T06:35:42;11.30;99.90
9215;DHT22;4642;51.364;6.788;2022-12-29T06:38:08;11.40;99.90
9215;DHT22;4642;51.364;6.788;2022-12-29T06:40:33;11.50;99.90
9215;DHT22;4642;51.364;6.788;2022-12-29T06:42:59;11.50;99.90
9215;DHT22;4642;51.364;6.788;2022-12-29T06:45:24;11.50;99.90
9215;DHT22;4642;51.364;6.788;2022-12-29T06:47:50;11.50;99.90
9215;DHT22;4642;51.364;6.788;2022-12-29T06:50:15;11.50;99.90
9215;DHT22;4642;51.364;6.788;2022-12-29T06:52:41;11.60;99.90
9215;DHT22;4642;51.364;6.788;2022-12-29T06:55:07;11.50;99.90
9215;DHT22;4642;51.364;6.788;2022-12-29T06:57:33;11.50;99.90
9215;DHT22;4642;51.364;6.788;2022-12-29T06:59:58;11.40;99.90
9215;DHT22;4642;51.364;6.788;2022-12-29T07:02:24;11.40;99.90
9215;DHT22;4642;51.364;6.788;2022-12-29T07:04:52;11.40;99.90
9215;DHT22;4642;51.364;6.788;2022-12-29T07:07:18;11.40;99.90
9215;DHT22;4642;51.364;6.788;2022-12-29T07:09:44;11.40;99.90
9215;DHT22;4642;51.364;6.788;2022-12-29T07:12:10;11.40;99.90
9215;DHT22;4642;51.364;6.788;2022-12-29T07:14:35;11.30;99.90
9215;DHT22;4642;51.364;6.788;2022-12-29T07:17:02;11.30;99.90
9215;DHT22;4642;51.364;6.788;2022-12-29T07:19:30;11.40;99.90
9215;DHT22;4642;51.364;6.788;2022-12-29T07:21:56;11.30;99.90
9215;DHT22;4642;51.364;6.788;2022-12-29T07:24:21;11.30;99.90
9215;DHT22;4642;51.364;6.788;2022-12-29T07:26:47;11.30;99.90
9215;DHT22;4642;51.364;6.788;2022-12-29T07:29:13;11.20;99.90
9215;DHT22;4642;51.364;6.788;2022-12-29T07:31:38;11.20;99.90
9215;DHT22;4642;51.364;6.788;2022-12-29T07:34:04;11.30;99.90
9215;DHT22;4642;51.364;6.788;2022-12-29T07:36:29;11.40;99.90
9215;DHT22;4642;51.364;6.788;2022-12-29T07:38:55;11.40;99.90
9215;DHT22;4642;51.364;6.788;2022-12-29T07:41:20;11.40;99.90
9215;DHT22;4642;51.364;6.788;2022-12-29T07:43:47;11.40;99.90
9215;DHT22;4642;51.364;6.788;2022-12-29T07:46:14;11.40;99.90
9215;DHT22;4642;51.364;6.788;2022-12-29T07:48:39;11.40;99.90
9215;DHT22;4642;51.364;6.788;2022-12-29T07:51:05;11.40;99.90
9215;DHT22;4642;51.364;6.788;2022-12-29T07:53:30;11.40;99.90
9215;DHT22;4642;51.364;6.788;2022-12-29T07:55:56;11.40;99.90
9215;DHT22;4642;51.364;6.788;2022-12-29T07:58:21;11.40;99.90
9215;DHT22;4642;51.364;6.788;2022-12-29T08:00:47;11.30;99.90
9215;DHT22;4642;51.364;6.788;2022-12-29T08:03:12;11.30;99.90
9215;DHT22;4642;51.364;6.788;2022-12-29T08:05:38;11.30;99.90
9215;DHT22;4642;51.364;6.788;2022-12-29T08:08:04;11.30;99.90
9215;DHT22;4642;51.364;6.788;2022-12-29T08:10:29;11.30;99.90
9215;DHT22;4642;51.364;6.788;2022-12-29T08:12:55;11.30;99.90
9215;DHT22;4642;51.364;6.788;2022-12-29T08:15:20;11.30;99.90
9215;DHT22;4642;51.364;6.788;2022-12-29T08:17:46;11.20;99.90
9215;DHT22;4642;51.364;6.788;2022-12-29T08:20:11;11.20;99.90
9215;DHT22;4642;51.364;6.788;2022-12-29T08:22:37;11.20;99.90
9215;DHT22;4642;51.364;6.788;2022-12-29T08:25:03;11.30;99.90
9215;DHT22;4642;51.364;6.788;2022-12-29T08:27:29;11.30;99.90
9215;DHT22;4642;51.364;6.788;2022-12-29T08:29:54;11.30;99.90
9215;DHT22;4642;51.364;6.788;2022-12-29T08:32:20;11.30;99.90
9215;DHT22;4642;51.364;6.788;2022-12-29T08:34:45;11.30;99.90
9215;DHT22;4642;51.364;6.788;2022-12-29T08:37:11;11.30;99.90
9215;DHT22;4642;51.364;6.788;2022-12-29T08:39:36;11.30;99.90
9215;DHT22;4642;51.364;6.788;2022-12-29T08:42:02;11.30;99.90
9215;DHT22;4642;51.364;6.788;2022-12-29T08:44:27;11.30;99.90
9215;DHT22;4642;51.364;6.788;2022-12-29T08:46:53;11.40;99.90
9215;DHT22;4642;51.364;6.788;2022-12-29T08:49:18;11.40;99.90
9215;DHT22;4642;51.364;6.788;2022-12-29T08:51:44;11.40;99.90
9215;DHT22;4642;51.364;6.788;2022-12-29T08:54:09;11.40;99.90
9215;DHT22;4642;51.364;6.788;2022-12-29T08:56:35;11.30;99.90
9215;DHT22;4642;51.364;6.788;2022-12-29T08:59:01;11.10;99.90
9215;DHT22;4642;51.364;6.788;2022-12-29T09:01:26;11.20;99.90
9215;DHT22;4642;51.364;6.788;2022-12-29T09:03:53;11.10;99.90
9215;DHT22;4642;51.364;6.788;2022-12-29T09:06:18;11.00;99.90
9215;DHT22;4642;51.364;6.788;2022-12-29T09:08:44;11.00;99.90
9215;DHT22;4642;51.364;6.788;2022-12-29T09:11:16;10.90;99.90
9215;DHT22;4642;51.364;6.788;2022-12-29T09:13:43;10.90;99.90
9215;DHT22;4642;51.364;6.788;2022-12-29T09:16:08;11.10;99.90
9215;DHT22;4642;51.364;6.788;2022-12-29T09:18:34;11.10;99.90
9215;DHT22;4642;51.364;6.788;2022-12-29T09:21:01;11.00;99.90
9215;DHT22;4642;51.364;6.788;2022-12-29T09:23:27;11.10;99.90
9215;DHT22;4642;51.364;6.788;2022-12-29T09:25:53;11.10;99.90
9215;DHT22;4642;51.364;6.788;2022-12-29T09:28:20;11.10;99.90
9215;DHT22;4642;51.364;6.788;2022-12-29T09:30:46;11.10;99.90
9215;DHT22;4642;51.364;6.788;2022-12-29T09:33:11;11.20;99.90
9215;DHT22;4642;51.364;6.788;2022-12-29T09:35:37;11.20;99.90
9215;DHT22;4642;51.364;6.788;2022-12-29T09:38:02;11.20;99.90
9215;DHT22;4642;51.364;6.788;2022-12-29T09:40:32;11.20;99.90
9215;DHT22;4642;51.364;6.788;2022-12-29T09:43:41;11.20;99.90
9215;DHT22;4642;51.364;6.788;2022-12-29T09:46:32;11.30;99.90
9215;DHT22;4642;51.364;6.788;2022-12-29T09:49:03;11.20;99.90
9215;DHT22;4642;51.364;6.788;2022-12-29T09:51:31;11.30;99.90
9215;DHT22;4642;51.364;6.788;2022-12-29T09:54:02;11.30;99.90
9215;DHT22;4642;51.364;6.788;2022-12-29T09:56:28;11.30;99.90
9215;DHT22;4642;51.364;6.788;2022-12-29T09:59:10;11.30;99.90
9215;DHT22;4642;51.364;6.788;2022-12-29T10:01:51;11.30;99.90
9215;DHT22;4642;51.364;6.788;2022-12-29T10:04:19;11.40;99.90
9215;DHT22;4642;51.364;6.788;2022-12-29T10:18:12;11.40;99.90
9215;DHT22;4642;51.364;6.788;2022-12-29T10:25:58;11.50;99.90
9215;DHT22;4642;51.364;6.788;2022-12-29T10:28:46;11.50;99.90
9215;DHT22;4642;51.364;6.788;2022-12-29T10:31:23;11.60;53.20
9215;DHT22;4642;51.364;6.788;2022-12-29T10:33:53;11.60;1.00
9215;DHT22;4642;51.364;6.788;2022-12-29T10:36:27;11.60;1.00
9215;DHT22;4642;51.364;6.788;2022-12-29T10:41:39;11.70;1.00
9215;DHT22;4642;51.364;6.788;2022-12-29T10:44:10;11.70;1.00
9215;DHT22;4642;51.364;6.788;2022-12-29T10:46:38;11.60;1.00
9215;DHT22;4642;51.364;6.788;2022-12-29T10:49:05;11.60;27.80
9215;DHT22;4642;51.364;6.788;2022-12-29T10:51:35;11.60;99.90
9215;DHT22;4642;51.364;6.788;2022-12-29T10:54:22;11.60;99.90
9215;DHT22;4642;51.364;6.788;2022-12-29T10:56:54;11.60;99.90
9215;DHT22;4642;51.364;6.788;2022-12-29T10:59:27;11.60;99.90
9215;DHT22;4642;51.364;6.788;2022-12-29T11:04:57;11.60;99.90
9215;DHT22;4642;51.364;6.788;2022-12-29T11:07:27;11.60;1.00
9215;DHT22;4642;51.364;6.788;2022-12-29T11:09:54;11.70;99.90
9215;DHT22;4642;51.364;6.788;2022-12-29T11:12:27;11.70;99.90
9215;DHT22;4642;51.364;6.788;2022-12-29T11:17:53;11.70;1.00
9215;DHT22;4642;51.364;6.788;2022-12-29T11:20:28;11.70;1.00
9215;DHT22;4642;51.364;6.788;2022-12-29T11:22:54;11.70;1.00
9215;DHT22;4642;51.364;6.788;2022-12-29T11:25:20;11.70;99.90
9215;DHT22;4642;51.364;6.788;2022-12-29T11:28:21;11.70;1.00
9215;DHT22;4642;51.364;6.788;2022-12-29T11:30:59;11.70;1.00
9215;DHT22;4642;51.364;6.788;2022-12-29T11:33:27;11.70;1.00
9215;DHT22;4642;51.364;6.788;2022-12-29T11:35:57;11.70;99.90
9215;DHT22;4642;51.364;6.788;2022-12-29T11:38:28;11.70;99.90
9215;DHT22;4642;51.364;6.788;2022-12-29T11:40:58;11.70;98.50
9215;DHT22;4642;51.364;6.788;2022-12-29T11:43:31;11.70;1.00
9215;DHT22;4642;51.364;6.788;2022-12-29T11:45:59;11.70;99.90
9215;DHT22;4642;51.364;6.788;2022-12-29T11:48:29;11.70;1.00
9215;DHT22;4642;51.364;6.788;2022-12-29T11:50:58;11.70;1.00
9215;DHT22;4642;51.364;6.788;2022-12-29T11:53:34;11.70;1.00
9215;DHT22;4642;51.364;6.788;2022-12-29T11:56:06;11.70;1.00
9215;DHT22;4642;51.364;6.788;2022-12-29T11:58:35;11.70;1.00
9215;DHT22;4642;51.364;6.788;2022-12-29T12:01:18;11.70;1.00
9215;DHT22;4642;51.364;6.788;2022-12-29T12:03:56;11.70;1.00
9215;DHT22;4642;51.364;6.788;2022-12-29T12:06:23;11.70;1.00
9215;DHT22;4642;51.364;6.788;2022-12-29T12:09:04;11.80;1.00
9215;DHT22;4642;51.364;6.788;2022-12-29T12:11:34;11.70;99.90
9215;DHT22;4642;51.364;6.788;2022-12-29T12:14:17;11.70;1.00
9215;DHT22;4642;51.364;6.788;2022-12-29T12:16:44;11.70;26.70
9215;DHT22;4642;51.364;6.788;2022-12-29T12:19:34;11.70;1.00
9215;DHT22;4642;51.364;6.788;2022-12-29T12:22:13;11.70;1.00
9215;DHT22;4642;51.364;6.788;2022-12-29T12:25:20;11.70;1.10
9215;DHT22;4642;51.364;6.788;2022-12-29T12:28:09;11.60;98.00
9215;DHT22;4642;51.364;6.788;2022-12-29T12:30:40;11.60;1.00
9215;DHT22;4642;51.364;6.788;2022-12-29T12:36:14;11.60;99.90
9215;DHT22;4642;51.364;6.788;2022-12-29T12:38:55;11.60;99.90
9215;DHT22;4642;51.364;6.788;2022-12-29T12:41:44;11.70;72.70
9215;DHT22;4642;51.364;6.788;2022-12-29T12:44:42;11.50;99.90
9215;DHT22;4642;51.364;6.788;2022-12-29T12:50:20;11.50;14.90
9215;DHT22;4642;51.364;6.788;2022-12-29T12:58:51;11.50;99.90
9215;DHT22;4642;51.364;6.788;2022-12-29T13:01:35;11.50;99.90
9215;DHT22;4642;51.364;6.788;2022-12-29T13:07:37;11.50;99.90
9215;DHT22;4642;51.364;6.788;2022-12-29T13:10:33;11.50;99.90
9215;DHT22;4642;51.364;6.788;2022-12-29T13:16:04;11.50;99.90
9215;DHT22;4642;51.364;6.788;2022-12-29T13:18:50;11.50;99.90
9215;DHT22;4642;51.364;6.788;2022-12-29T13:26:53;11.40;99.90
9215;DHT22;4642;51.364;6.788;2022-12-29T13:29:25;11.30;99.90
9215;DHT22;4642;51.364;6.788;2022-12-29T13:35:14;11.30;99.90
9215;DHT22;4642;51.364;6.788;2022-12-29T13:38:36;11.20;99.90
9215;DHT22;4642;51.364;6.788;2022-12-29T13:40:45;11.20;99.90
9215;DHT22;4642;51.364;6.788;2022-12-29T13:43:13;11.10;99.90
9215;DHT22;4642;51.364;6.788;2022-12-29T13:45:40;11.10;99.90
9215;DHT22;4642;51.364;6.788;2022-12-29T13:50:38;11.10;1.00
9215;DHT22;4642;51.364;6.788;2022-12-29T13:53:28;11.10;1.00
9215;DHT22;4642;51.364;6.788;2022-12-29T13:56:12;11.60;1.00
9215;DHT22;4642;51.364;6.788;2022-12-29T13:58:44;11.10;1.00
9215;DHT22;4642;51.364;6.788;2022-12-29T14:01:36;11.10;1.00
9215;DHT22;4642;51.364;6.788;2022-12-29T14:04:13;11.10;99.90
9215;DHT22;4642;51.364;6.788;2022-12-29T14:06:39;11.10;1.00
9215;DHT22;4642;51.364;6.788;2022-12-29T14:11:59;11.10;99.90
9215;DHT22;4642;51.364;6.788;2022-12-29T14:14:30;11.10;99.90
9215;DHT22;4642;51.364;6.788;2022-12-29T14:17:11;11.20;99.90
9215;DHT22;4642;51.364;6.788;2022-12-29T14:19:40;11.20;99.90
9215;DHT22;4642;51.364;6.788;2022-12-29T14:22:08;11.10;99.90
9215;DHT22;4642;51.364;6.788;2022-12-29T14:29:50;11.10;1.00
9215;DHT22;4642;51.364;6.788;2022-12-29T14:34:45;11.10;1.00
9215;DHT22;4642;51.364;6.788;2022-12-29T14:39:48;11.10;99.90
9215;DHT22;4642;51.364;6.788;2022-12-29T14:42:19;11.00;99.90
9215;DHT22;4642;51.364;6.788;2022-12-29T14:45:02;11.00;99.90
9215;DHT22;4642;51.364;6.788;2022-12-29T14:47:34;11.00;99.90
9215;DHT22;4642;51.364;6.788;2022-12-29T14:52:49;11.00;9.30
9215;DHT22;4642;51.364;6.788;2022-12-29T14:57:42;11.00;1.00
9215;DHT22;4642;51.364;6.788;2022-12-29T15:00:18;11.00;94.70
9215;DHT22;4642;51.364;6.788;2022-12-29T15:02:54;11.00;1.00
9215;DHT22;4642;51.364;6.788;2022-12-29T15:08:44;10.90;1.00
9215;DHT22;4642;51.364;6.788;2022-12-29T15:11:17;10.90;1.00
9215;DHT22;4642;51.364;6.788;2022-12-29T15:13:44;10.90;51.00
9215;DHT22;4642;51.364;6.788;2022-12-29T15:16:33;10.80;15.40
9215;DHT22;4642;51.364;6.788;2022-12-29T15:19:01;10.90;1.00
9215;DHT22;4642;51.364;6.788;2022-12-29T15:21:30;10.90;1.00
9215;DHT22;4642;51.364;6.788;2022-12-29T15:23:56;10.90;1.00
9215;DHT22;4642;51.364;6.788;2022-12-29T15:26:22;10.90;31.10
9215;DHT22;4642;51.364;6.788;2022-12-29T15:28:50;10.80;71.60
9215;DHT22;4642;51.364;6.788;2022-12-29T15:31:24;10.80;27.30
9215;DHT22;4642;51.364;6.788;2022-12-29T15:33:53;10.90;1.00
9215;DHT22;4642;51.364;6.788;2022-12-29T15:36:27;10.80;1.00
9215;DHT22;4642;51.364;6.788;2022-12-29T15:38:53;10.80;1.00
9215;DHT22;4642;51.364;6.788;2022-12-29T15:41:39;10.80;4.00
9215;DHT22;4642;51.364;6.788;2022-12-29T15:44:32;10.80;1.00
9215;DHT22;4642;51.364;6.788;2022-12-29T15:49:38;10.70;1.00
9215;DHT22;4642;51.364;6.788;2022-12-29T15:52:08;10.70;1.00
9215;DHT22;4642;51.364;6.788;2022-12-29T15:54:34;10.60;1.00
9215;DHT22;4642;51.364;6.788;2022-12-29T15:57:00;10.60;1.00
9215;DHT22;4642;51.364;6.788;2022-12-29T16:01:57;10.60;1.00
9215;DHT22;4642;51.364;6.788;2022-12-29T16:04:25;10.50;99.90
9215;DHT22;4642;51.364;6.788;2022-12-29T16:07:01;10.40;99.90
9215;DHT22;4642;51.364;6.788;2022-12-29T16:12:35;10.30;99.90
9215;DHT22;4642;51.364;6.788;2022-12-29T16:15:05;10.30;99.90
9215;DHT22;4642;51.364;6.788;2022-12-29T16:17:36;10.30;1.00
9215;DHT22;4642;51.364;6.788;2022-12-29T16:20:06;10.20;1.00
9215;DHT22;4642;51.364;6.788;2022-12-29T16:22:42;10.10;1.00
9215;DHT22;4642;51.364;6.788;2022-12-29T16:25:32;10.10;99.90
9215;DHT22;4642;51.364;6.788;2022-12-29T16:28:00;10.10;1.00
9215;DHT22;4642;51.364;6.788;2022-12-29T16:30:32;10.00;48.10
9215;DHT22;4642;51.364;6.788;2022-12-29T16:33:03;10.00;99.90
9215;DHT22;4642;51.364;6.788;2022-12-29T16:35:44;10.00;99.90
9215;DHT22;4642;51.364;6.788;2022-12-29T16:38:21;9.90;99.90
9215;DHT22;4642;51.364;6.788;2022-12-29T16:40:58;10.00;99.90
9215;DHT22;4642;51.364;6.788;2022-12-29T16:43:33;9.90;99.90
9215;DHT22;4642;51.364;6.788;2022-12-29T16:48:34;9.90;99.90
9215;DHT22;4642;51.364;6.788;2022-12-29T16:53:38;10.00;1.00
9215;DHT22;4642;51.364;6.788;2022-12-29T16:56:19;10.00;1.00
9215;DHT22;4642;51.364;6.788;2022-12-29T16:58:50;10.00;99.90
9215;DHT22;4642;51.364;6.788;2022-12-29T17:01:18;10.10;99.90
9215;DHT22;4642;51.364;6.788;2022-12-29T17:03:51;10.10;1.00
9215;DHT22;4642;51.364;6.788;2022-12-29T17:06:19;10.20;1.00
9215;DHT22;4642;51.364;6.788;2022-12-29T17:08:46;10.20;26.60
9215;DHT22;4642;51.364;6.788;2022-12-29T17:11:32;10.20;1.00
9215;DHT22;4642;51.364;6.788;2022-12-29T17:17:18;10.30;1.00
9215;DHT22;4642;51.364;6.788;2022-12-29T17:19:48;10.30;1.00
9215;DHT22;4642;51.364;6.788;2022-12-29T17:22:23;10.20;1.00
9215;DHT22;4642;51.364;6.788;2022-12-29T17:24:51;9.90;99.90
9215;DHT22;4642;51.364;6.788;2022-12-29T17:27:33;9.70;1.00
9215;DHT22;4642;51.364;6.788;2022-12-29T17:30:03;9.50;1.00
9215;DHT22;4642;51.364;6.788;2022-12-29T17:32:30;9.30;1.00
9215;DHT22;4642;51.364;6.788;2022-12-29T17:34:56;9.20;38.90
9215;DHT22;4642;51.364;6.788;2022-12-29T17:39:56;8.90;99.90
9215;DHT22;4642;51.364;6.788;2022-12-29T17:42:22;8.80;99.90
9215;DHT22;4642;51.364;6.788;2022-12-29T17:44:47;8.70;99.90
9215;DHT22;4642;51.364;6.788;2022-12-29T17:47:14;8.60;99.90
9215;DHT22;4642;51.364;6.788;2022-12-29T17:49:40;8.60;99.90
9215;DHT22;4642;51.364;6.788;2022-12-29T17:52:11;8.50;99.90
9215;DHT22;4642;51.364;6.788;2022-12-29T17:54:43;8.40;99.90
9215;DHT22;4642;51.364;6.788;2022-12-29T17:57:14;8.40;99.90
9215;DHT22;4642;51.364;6.788;2022-12-29T17:59:40;8.30;99.90
9215;DHT22;4642;51.364;6.788;2022-12-29T18:02:29;8.30;99.90
9215;DHT22;4642;51.364;6.788;2022-12-29T18:04:56;8.30;99.90
9215;DHT22;4642;51.364;6.788;2022-12-29T18:07:25;8.30;99.90
9215;DHT22;4642;51.364;6.788;2022-12-29T18:09:51;8.30;99.90
9215;DHT22;4642;51.364;6.788;2022-12-29T18:12:31;8.20;99.90
9215;DHT22;4642;51.364;6.788;2022-12-29T18:14:57;8.20;99.90
9215;DHT22;4642;51.364;6.788;2022-12-29T18:17:23;8.20;99.90
9215;DHT22;4642;51.364;6.788;2022-12-29T18:19:49;8.10;99.90
9215;DHT22;4642;51.364;6.788;2022-12-29T18:22:16;8.10;99.90
9215;DHT22;4642;51.364;6.788;2022-12-29T18:24:42;8.10;99.90
9215;DHT22;4642;51.364;6.788;2022-12-29T18:27:13;8.10;99.90
9215;DHT22;4642;51.364;6.788;2022-12-29T18:29:40;8.00;99.90